Terminal Aerodrome Forecast
Issued by NWS

Home | Current Version | Previous Version | Text Only | Print | Product List | Glossary On
Versions: 1 2 3 4 5 6 7 8 9 10 11 12 13 14 15 16 17 18 19 20 21 22 23 24 25 26
000
FTUS44 KLIX 291740
TAFHUM
TAF
KHUM 291740Z 2918/3018 VRB05KT P6SM SCT050
      TEMPO 2922/3001 2SM TSRA BKN030CB
     FM300200 VRB03KT P6SM FEW050 SCT250
     FM301500 VRB06KT P6SM SCT060 SCT150=

USA.gov is the U.S. government's official web portal to all federal, state and local government web resources and services.